Terminal Aerodrome Forecast
Issued by NWS

Current Version | Previous Version | Text Only | Print | Product List | Glossary On
Versions: 1 2 3 4 5 6 7 8 9 10 11 12 13 14 15
000
FTUS45 KVEF 020523
TAFEED
TAF
KEED 020523Z 0206/0306 33007KT P6SM FEW200
     FM021200 36008KT P6SM FEW200
     FM022200 23008KT P6SM FEW150=

USA.gov is the U.S. government's official web portal to all federal, state and local government web resources and services.